Terminal Aerodrome Forecast
Issued by NWS

Home | Current Version | Previous Version | Text Only | Print | Product List | Glossary On
Versions: 1 2 3 4 5 6 7 8 9 10 11 12 13 14 15 16 17 18 19 20 21 22 23 24 25 26
000
FTUS43 KAPX 282320
TAFTVC
TAF
KTVC 282320Z 2900/2924 22004KT P6SM OVC150
     FM290500 20006KT P6SM -SHRA SCT050 OVC080
     FM290800 20004KT 6SM -SHRA BR SCT028 OVC050
     FM291400 VRB05KT P6SM VCSH BKN020 OVC050
     FM291800 23007KT P6SM BKN040=

USA.gov is the U.S. government's official web portal to all federal, state and local government web resources and services.